Terminal Aerodrome Forecast
Issued by NWS Twin Cities, MN

Home | Current Version | Previous Version | Text Only | Print | Product List | Glossary On
Versions: 1 2 3 4 5 6 7 8 9 10 11 12 13 14 15 16 17 18 19 20
000
FTUS43 KMPX 301100
TAFSTC
TAF
KSTC 301125Z 3012/3112 15003KT P6SM VCSH SCT025 BKN040
     FM301730 01008KT P6SM BKN020
     FM302000 35012G18KT P6SM VCSH OVC025
     FM302200 34015G26KT P6SM SCT025 BKN035
     FM310300 33012KT P6SM SKC=

USA.gov is the U.S. government's official web portal to all federal, state and local government web resources and services.